sensor_id;sensor_type;location;lat;lon;timestamp;P1;durP1;ratioP1;P2;durP2;ratioP2
9942;SDS011;5010;45.080;7.634;2024-03-22T00:02:24;10.65;;;6.57;;
9942;SDS011;5010;45.080;7.634;2024-03-22T00:04:50;12.27;;;5.72;;
9942;SDS011;5010;45.080;7.634;2024-03-22T00:07:18;8.70;;;4.75;;
9942;SDS011;5010;45.080;7.634;2024-03-22T00:09:45;12.82;;;6.90;;
9942;SDS011;5010;45.080;7.634;2024-03-22T00:12:13;15.98;;;7.28;;
9942;SDS011;5010;45.080;7.634;2024-03-22T00:14:40;10.35;;;6.10;;
9942;SDS011;5010;45.080;7.634;2024-03-22T00:17:09;15.45;;;7.55;;
9942;SDS011;5010;45.080;7.634;2024-03-22T00:19:35;16.08;;;7.57;;
9942;SDS011;5010;45.080;7.634;2024-03-22T00:22:03;12.07;;;5.28;;
9942;SDS011;5010;45.080;7.634;2024-03-22T00:24:30;14.25;;;7.32;;
9942;SDS011;5010;45.080;7.634;2024-03-22T00:26:58;16.00;;;7.28;;
9942;SDS011;5010;45.080;7.634;2024-03-22T00:29:25;11.27;;;7.85;;
9942;SDS011;5010;45.080;7.634;2024-03-22T00:31:56;12.80;;;6.38;;
9942;SDS011;5010;45.080;7.634;2024-03-22T00:34:24;9.82;;;7.03;;
9942;SDS011;5010;45.080;7.634;2024-03-22T00:36:52;12.05;;;6.50;;
9942;SDS011;5010;45.080;7.634;2024-03-22T00:39:18;14.77;;;8.20;;
9942;SDS011;5010;45.080;7.634;2024-03-22T00:41:46;14.00;;;7.05;;
9942;SDS011;5010;45.080;7.634;2024-03-22T00:44:13;7.18;;;5.22;;
9942;SDS011;5010;45.080;7.634;2024-03-22T00:46:40;9.02;;;5.93;;
9942;SDS011;5010;45.080;7.634;2024-03-22T00:49:07;10.05;;;4.60;;
9942;SDS011;5010;45.080;7.634;2024-03-22T00:51:36;12.30;;;5.38;;
9942;SDS011;5010;45.080;7.634;2024-03-22T00:54:03;10.55;;;4.95;;
9942;SDS011;5010;45.080;7.634;2024-03-22T00:56:31;13.52;;;5.20;;
9942;SDS011;5010;45.080;7.634;2024-03-22T00:58:57;10.27;;;5.32;;
9942;SDS011;5010;45.080;7.634;2024-03-22T01:01:25;8.93;;;4.78;;
9942;SDS011;5010;45.080;7.634;2024-03-22T01:03:52;11.68;;;6.45;;
9942;SDS011;5010;45.080;7.634;2024-03-22T01:06:20;15.70;;;5.13;;
9942;SDS011;5010;45.080;7.634;2024-03-22T01:08:51;10.95;;;6.45;;
9942;SDS011;5010;45.080;7.634;2024-03-22T01:11:19;14.05;;;7.18;;
9942;SDS011;5010;45.080;7.634;2024-03-22T01:13:46;12.07;;;6.88;;
9942;SDS011;5010;45.080;7.634;2024-03-22T01:16:14;12.38;;;6.97;;
9942;SDS011;5010;45.080;7.634;2024-03-22T01:18:42;11.05;;;7.93;;
9942;SDS011;5010;45.080;7.634;2024-03-22T01:21:09;10.82;;;6.65;;
9942;SDS011;5010;45.080;7.634;2024-03-22T01:23:36;12.20;;;5.57;;
9942;SDS011;5010;45.080;7.634;2024-03-22T01:26:05;15.55;;;6.82;;
9942;SDS011;5010;45.080;7.634;2024-03-22T01:28:32;9.38;;;5.75;;
9942;SDS011;5010;45.080;7.634;2024-03-22T01:31:00;14.40;;;6.80;;
9942;SDS011;5010;45.080;7.634;2024-03-22T01:33:26;13.65;;;7.13;;
9942;SDS011;5010;45.080;7.634;2024-03-22T01:35:54;13.35;;;7.15;;
9942;SDS011;5010;45.080;7.634;2024-03-22T01:38:21;13.77;;;8.18;;
9942;SDS011;5010;45.080;7.634;2024-03-22T01:40:49;15.35;;;7.63;;
9942;SDS011;5010;45.080;7.634;2024-03-22T01:43:17;13.35;;;8.05;;
9942;SDS011;5010;45.080;7.634;2024-03-22T01:45:45;9.30;;;6.05;;
9942;SDS011;5010;45.080;7.634;2024-03-22T01:48:11;19.10;;;8.70;;
9942;SDS011;5010;45.080;7.634;2024-03-22T01:50:39;11.65;;;6.78;;
9942;SDS011;5010;45.080;7.634;2024-03-22T01:53:06;14.90;;;7.72;;
9942;SDS011;5010;45.080;7.634;2024-03-22T01:55:35;15.05;;;8.45;;
9942;SDS011;5010;45.080;7.634;2024-03-22T01:58:01;11.07;;;6.47;;
9942;SDS011;5010;45.080;7.634;2024-03-22T02:00:31;10.80;;;7.97;;
9942;SDS011;5010;45.080;7.634;2024-03-22T02:02:58;10.57;;;6.07;;
9942;SDS011;5010;45.080;7.634;2024-03-22T02:05:25;15.40;;;7.68;;
9942;SDS011;5010;45.080;7.634;2024-03-22T02:07:52;15.88;;;7.95;;
9942;SDS011;5010;45.080;7.634;2024-03-22T02:10:20;19.95;;;8.25;;
9942;SDS011;5010;45.080;7.634;2024-03-22T02:12:47;19.63;;;7.93;;
9942;SDS011;5010;45.080;7.634;2024-03-22T02:15:15;14.27;;;7.15;;
9942;SDS011;5010;45.080;7.634;2024-03-22T02:17:43;10.07;;;6.47;;
9942;SDS011;5010;45.080;7.634;2024-03-22T02:20:11;16.10;;;7.88;;
9942;SDS011;5010;45.080;7.634;2024-03-22T02:22:38;17.13;;;7.82;;
9942;SDS011;5010;45.080;7.634;2024-03-22T02:25:07;15.02;;;8.70;;
9942;SDS011;5010;45.080;7.634;2024-03-22T02:27:34;14.55;;;8.77;;
9942;SDS011;5010;45.080;7.634;2024-03-22T02:30:02;12.32;;;7.18;;
9942;SDS011;5010;45.080;7.634;2024-03-22T02:32:29;10.07;;;7.97;;
9942;SDS011;5010;45.080;7.634;2024-03-22T02:34:57;14.05;;;9.32;;
9942;SDS011;5010;45.080;7.634;2024-03-22T02:37:24;10.20;;;6.82;;
9942;SDS011;5010;45.080;7.634;2024-03-22T02:39:53;13.43;;;7.50;;
9942;SDS011;5010;45.080;7.634;2024-03-22T02:42:21;14.05;;;8.18;;
9942;SDS011;5010;45.080;7.634;2024-03-22T02:44:49;11.90;;;6.35;;
9942;SDS011;5010;45.080;7.634;2024-03-22T02:47:16;14.68;;;7.93;;
9942;SDS011;5010;45.080;7.634;2024-03-22T02:49:44;16.50;;;8.20;;
9942;SDS011;5010;45.080;7.634;2024-03-22T02:52:11;17.33;;;9.57;;
9942;SDS011;5010;45.080;7.634;2024-03-22T02:54:39;12.65;;;7.63;;
9942;SDS011;5010;45.080;7.634;2024-03-22T02:57:06;11.73;;;6.20;;
9942;SDS011;5010;45.080;7.634;2024-03-22T02:59:36;14.55;;;7.75;;
9942;SDS011;5010;45.080;7.634;2024-03-22T03:02:03;12.35;;;6.88;;
9942;SDS011;5010;45.080;7.634;2024-03-22T03:04:31;13.82;;;8.60;;
9942;SDS011;5010;45.080;7.634;2024-03-22T03:06:58;24.98;;;8.35;;
9942;SDS011;5010;45.080;7.634;2024-03-22T03:09:26;17.05;;;8.82;;
9942;SDS011;5010;45.080;7.634;2024-03-22T03:11:52;14.30;;;7.97;;
9942;SDS011;5010;45.080;7.634;2024-03-22T03:14:20;16.88;;;11.20;;
9942;SDS011;5010;45.080;7.634;2024-03-22T03:16:49;18.10;;;7.28;;
9942;SDS011;5010;45.080;7.634;2024-03-22T03:19:17;11.25;;;6.82;;
9942;SDS011;5010;45.080;7.634;2024-03-22T03:21:43;16.80;;;6.45;;
9942;SDS011;5010;45.080;7.634;2024-03-22T03:24:12;17.63;;;9.52;;
9942;SDS011;5010;45.080;7.634;2024-03-22T03:26:38;17.80;;;10.50;;
9942;SDS011;5010;45.080;7.634;2024-03-22T03:29:06;16.20;;;8.88;;
9942;SDS011;5010;45.080;7.634;2024-03-22T03:31:33;11.75;;;8.55;;
9942;SDS011;5010;45.080;7.634;2024-03-22T03:34:03;21.02;;;10.05;;
9942;SDS011;5010;45.080;7.634;2024-03-22T03:36:29;12.57;;;7.22;;
9942;SDS011;5010;45.080;7.634;2024-03-22T03:38:57;10.77;;;8.13;;
9942;SDS011;5010;45.080;7.634;2024-03-22T03:41:24;10.50;;;6.78;;
9942;SDS011;5010;45.080;7.634;2024-03-22T03:43:52;17.55;;;8.55;;
9942;SDS011;5010;45.080;7.634;2024-03-22T03:46:19;21.88;;;14.07;;
9942;SDS011;5010;45.080;7.634;2024-03-22T03:48:47;21.30;;;11.57;;
9942;SDS011;5010;45.080;7.634;2024-03-22T03:51:15;29.90;;;14.60;;
9942;SDS011;5010;45.080;7.634;2024-03-22T03:53:43;22.92;;;12.60;;
9942;SDS011;5010;45.080;7.634;2024-03-22T03:56:10;16.08;;;10.07;;
9942;SDS011;5010;45.080;7.634;2024-03-22T03:58:38;23.00;;;12.45;;
9942;SDS011;5010;45.080;7.634;2024-03-22T04:01:05;15.93;;;9.98;;
9942;SDS011;5010;45.080;7.634;2024-03-22T04:03:33;23.00;;;16.45;;
9942;SDS011;5010;45.080;7.634;2024-03-22T04:06:00;22.33;;;13.60;;
9942;SDS011;5010;45.080;7.634;2024-03-22T04:08:30;22.77;;;12.85;;
9942;SDS011;5010;45.080;7.634;2024-03-22T04:10:58;22.45;;;12.52;;
9942;SDS011;5010;45.080;7.634;2024-03-22T04:13:26;19.15;;;10.77;;
9942;SDS011;5010;45.080;7.634;2024-03-22T04:15:53;16.55;;;9.98;;
9942;SDS011;5010;45.080;7.634;2024-03-22T04:18:25;21.15;;;8.38;;
9942;SDS011;5010;45.080;7.634;2024-03-22T04:20:55;15.68;;;9.90;;
9942;SDS011;5010;45.080;7.634;2024-03-22T04:23:24;16.20;;;9.48;;
9942;SDS011;5010;45.080;7.634;2024-03-22T04:25:54;18.20;;;9.55;;
9942;SDS011;5010;45.080;7.634;2024-03-22T04:28:22;19.10;;;10.82;;
9942;SDS011;5010;45.080;7.634;2024-03-22T04:30:56;17.52;;;10.18;;
9942;SDS011;5010;45.080;7.634;2024-03-22T04:33:25;17.33;;;11.82;;
9942;SDS011;5010;45.080;7.634;2024-03-22T04:35:52;20.85;;;11.20;;
9942;SDS011;5010;45.080;7.634;2024-03-22T04:38:21;25.02;;;12.07;;
9942;SDS011;5010;45.080;7.634;2024-03-22T04:40:49;20.20;;;12.10;;
9942;SDS011;5010;45.080;7.634;2024-03-22T04:43:19;14.85;;;9.15;;
9942;SDS011;5010;45.080;7.634;2024-03-22T04:45:47;18.00;;;11.05;;
9942;SDS011;5010;45.080;7.634;2024-03-22T04:48:16;13.63;;;10.23;;
9942;SDS011;5010;45.080;7.634;2024-03-22T04:50:44;18.75;;;9.30;;
9942;SDS011;5010;45.080;7.634;2024-03-22T04:53:13;19.00;;;8.50;;
9942;SDS011;5010;45.080;7.634;2024-03-22T04:55:40;14.15;;;9.02;;
9942;SDS011;5010;45.080;7.634;2024-03-22T04:58:11;20.83;;;10.02;;
9942;SDS011;5010;45.080;7.634;2024-03-22T05:00:40;14.32;;;8.93;;
9942;SDS011;5010;45.080;7.634;2024-03-22T05:03:09;24.08;;;12.80;;
9942;SDS011;5010;45.080;7.634;2024-03-22T05:05:36;20.60;;;11.35;;
9942;SDS011;5010;45.080;7.634;2024-03-22T05:08:05;17.73;;;11.73;;
9942;SDS011;5010;45.080;7.634;2024-03-22T05:10:32;21.98;;;10.35;;
9942;SDS011;5010;45.080;7.634;2024-03-22T05:13:01;17.10;;;9.55;;
9942;SDS011;5010;45.080;7.634;2024-03-22T05:15:28;21.23;;;9.60;;
9942;SDS011;5010;45.080;7.634;2024-03-22T05:17:58;15.65;;;9.05;;
9942;SDS011;5010;45.080;7.634;2024-03-22T05:20:26;17.73;;;8.82;;
9942;SDS011;5010;45.080;7.634;2024-03-22T05:22:53;17.95;;;10.88;;
9942;SDS011;5010;45.080;7.634;2024-03-22T05:25:21;17.60;;;12.13;;
9942;SDS011;5010;45.080;7.634;2024-03-22T05:27:48;10.85;;;6.63;;
9942;SDS011;5010;45.080;7.634;2024-03-22T05:30:17;18.70;;;10.18;;
9942;SDS011;5010;45.080;7.634;2024-03-22T05:32:44;17.42;;;9.35;;
9942;SDS011;5010;45.080;7.634;2024-03-22T05:35:14;20.15;;;11.82;;
9942;SDS011;5010;45.080;7.634;2024-03-22T05:37:41;16.80;;;10.55;;
9942;SDS011;5010;45.080;7.634;2024-03-22T05:40:09;26.15;;;12.00;;
9942;SDS011;5010;45.080;7.634;2024-03-22T05:42:37;20.60;;;9.20;;
9942;SDS011;5010;45.080;7.634;2024-03-22T05:45:05;20.35;;;11.35;;
9942;SDS011;5010;45.080;7.634;2024-03-22T05:47:32;15.85;;;8.02;;
9942;SDS011;5010;45.080;7.634;2024-03-22T05:50:00;19.67;;;11.13;;
9942;SDS011;5010;45.080;7.634;2024-03-22T05:52:29;18.50;;;11.50;;
9942;SDS011;5010;45.080;7.634;2024-03-22T05:54:57;22.25;;;9.23;;
9942;SDS011;5010;45.080;7.634;2024-03-22T05:57:24;14.20;;;10.40;;
9942;SDS011;5010;45.080;7.634;2024-03-22T05:59:52;16.48;;;13.05;;
9942;SDS011;5010;45.080;7.634;2024-03-22T06:02:19;22.92;;;13.15;;
9942;SDS011;5010;45.080;7.634;2024-03-22T06:04:47;21.38;;;10.88;;
9942;SDS011;5010;45.080;7.634;2024-03-22T06:07:14;28.58;;;14.25;;
9942;SDS011;5010;45.080;7.634;2024-03-22T06:09:44;23.13;;;15.07;;
9942;SDS011;5010;45.080;7.634;2024-03-22T06:12:11;20.77;;;12.50;;
9942;SDS011;5010;45.080;7.634;2024-03-22T06:14:39;21.63;;;12.35;;
9942;SDS011;5010;45.080;7.634;2024-03-22T06:17:07;21.52;;;11.40;;
9942;SDS011;5010;45.080;7.634;2024-03-22T06:19:35;23.67;;;12.77;;
9942;SDS011;5010;45.080;7.634;2024-03-22T06:22:02;21.95;;;12.98;;
9942;SDS011;5010;45.080;7.634;2024-03-22T06:24:30;18.27;;;11.93;;
9942;SDS011;5010;45.080;7.634;2024-03-22T06:26:59;22.58;;;12.85;;
9942;SDS011;5010;45.080;7.634;2024-03-22T06:29:28;22.50;;;12.98;;
9942;SDS011;5010;45.080;7.634;2024-03-22T06:31:55;23.45;;;13.57;;
9942;SDS011;5010;45.080;7.634;2024-03-22T06:34:23;20.85;;;13.15;;
9942;SDS011;5010;45.080;7.634;2024-03-22T06:36:50;26.13;;;14.52;;
9942;SDS011;5010;45.080;7.634;2024-03-22T06:39:18;17.90;;;12.35;;
9942;SDS011;5010;45.080;7.634;2024-03-22T06:41:48;17.90;;;11.48;;
9942;SDS011;5010;45.080;7.634;2024-03-22T06:44:17;18.58;;;13.02;;
9942;SDS011;5010;45.080;7.634;2024-03-22T06:46:44;25.55;;;12.82;;
9942;SDS011;5010;45.080;7.634;2024-03-22T06:49:12;25.63;;;15.68;;
9942;SDS011;5010;45.080;7.634;2024-03-22T06:51:39;22.45;;;13.93;;
9942;SDS011;5010;45.080;7.634;2024-03-22T06:54:07;19.85;;;11.70;;
9942;SDS011;5010;45.080;7.634;2024-03-22T06:56:34;20.77;;;11.73;;
9942;SDS011;5010;45.080;7.634;2024-03-22T06:59:02;26.83;;;14.93;;
9942;SDS011;5010;45.080;7.634;2024-03-22T07:01:30;16.58;;;12.35;;
9942;SDS011;5010;45.080;7.634;2024-03-22T07:03:58;30.20;;;15.68;;
9942;SDS011;5010;45.080;7.634;2024-03-22T07:06:25;25.25;;;14.90;;
9942;SDS011;5010;45.080;7.634;2024-03-22T07:08:53;29.60;;;17.50;;
9942;SDS011;5010;45.080;7.634;2024-03-22T07:11:20;25.77;;;17.08;;
9942;SDS011;5010;45.080;7.634;2024-03-22T07:13:48;34.15;;;20.15;;
9942;SDS011;5010;45.080;7.634;2024-03-22T07:16:15;31.23;;;19.45;;
9942;SDS011;5010;45.080;7.634;2024-03-22T07:18:44;31.73;;;17.92;;
9942;SDS011;5010;45.080;7.634;2024-03-22T07:21:11;29.92;;;18.88;;
9942;SDS011;5010;45.080;7.634;2024-03-22T07:23:39;33.20;;;18.88;;
9942;SDS011;5010;45.080;7.634;2024-03-22T07:26:06;22.95;;;14.15;;
9942;SDS011;5010;45.080;7.634;2024-03-22T07:28:34;25.27;;;13.77;;
9942;SDS011;5010;45.080;7.634;2024-03-22T07:31:01;27.63;;;18.05;;
9942;SDS011;5010;45.080;7.634;2024-03-22T07:33:30;31.08;;;17.65;;
9942;SDS011;5010;45.080;7.634;2024-03-22T07:36:02;32.97;;;20.02;;
9942;SDS011;5010;45.080;7.634;2024-03-22T07:38:31;34.75;;;20.90;;
9942;SDS011;5010;45.080;7.634;2024-03-22T07:40:58;31.60;;;18.95;;
9942;SDS011;5010;45.080;7.634;2024-03-22T07:43:26;33.28;;;21.45;;
9942;SDS011;5010;45.080;7.634;2024-03-22T07:45:53;33.08;;;22.83;;
9942;SDS011;5010;45.080;7.634;2024-03-22T07:48:21;31.85;;;20.13;;
9942;SDS011;5010;45.080;7.634;2024-03-22T07:50:55;32.95;;;22.67;;
9942;SDS011;5010;45.080;7.634;2024-03-22T07:53:26;35.83;;;22.65;;
9942;SDS011;5010;45.080;7.634;2024-03-22T07:55:53;33.60;;;23.60;;
9942;SDS011;5010;45.080;7.634;2024-03-22T07:58:21;33.83;;;25.05;;
9942;SDS011;5010;45.080;7.634;2024-03-22T08:00:48;33.38;;;23.38;;
9942;SDS011;5010;45.080;7.634;2024-03-22T08:03:16;27.58;;;18.15;;
9942;SDS011;5010;45.080;7.634;2024-03-22T08:05:43;34.08;;;20.92;;
9942;SDS011;5010;45.080;7.634;2024-03-22T08:08:11;33.58;;;21.17;;
9942;SDS011;5010;45.080;7.634;2024-03-22T08:10:39;32.97;;;20.30;;
9942;SDS011;5010;45.080;7.634;2024-03-22T08:13:07;30.70;;;20.73;;
9942;SDS011;5010;45.080;7.634;2024-03-22T08:15:34;35.00;;;19.77;;
9942;SDS011;5010;45.080;7.634;2024-03-22T08:18:02;31.20;;;20.65;;
9942;SDS011;5010;45.080;7.634;2024-03-22T08:20:30;29.40;;;20.70;;
9942;SDS011;5010;45.080;7.634;2024-03-22T08:22:59;33.55;;;19.85;;
9942;SDS011;5010;45.080;7.634;2024-03-22T08:25:26;36.70;;;21.27;;
9942;SDS011;5010;45.080;7.634;2024-03-22T08:27:55;34.50;;;22.58;;
9942;SDS011;5010;45.080;7.634;2024-03-22T08:30:23;35.20;;;20.67;;
9942;SDS011;5010;45.080;7.634;2024-03-22T08:32:52;37.45;;;24.67;;
9942;SDS011;5010;45.080;7.634;2024-03-22T08:35:19;31.77;;;24.33;;
9942;SDS011;5010;45.080;7.634;2024-03-22T08:37:47;34.15;;;23.58;;
9942;SDS011;5010;45.080;7.634;2024-03-22T08:40:14;36.78;;;24.73;;
9942;SDS011;5010;45.080;7.634;2024-03-22T08:42:43;34.58;;;23.48;;
9942;SDS011;5010;45.080;7.634;2024-03-22T08:45:11;36.10;;;22.38;;
9942;SDS011;5010;45.080;7.634;2024-03-22T08:47:40;40.08;;;25.48;;
9942;SDS011;5010;45.080;7.634;2024-03-22T08:50:07;41.10;;;26.15;;
9942;SDS011;5010;45.080;7.634;2024-03-22T08:52:36;39.47;;;26.00;;
9942;SDS011;5010;45.080;7.634;2024-03-22T08:55:04;44.75;;;30.27;;
9942;SDS011;5010;45.080;7.634;2024-03-22T08:57:32;36.60;;;26.50;;
9942;SDS011;5010;45.080;7.634;2024-03-22T08:59:59;40.40;;;26.90;;
9942;SDS011;5010;45.080;7.634;2024-03-22T09:02:29;38.13;;;26.23;;
9942;SDS011;5010;45.080;7.634;2024-03-22T09:04:56;42.40;;;28.35;;
9942;SDS011;5010;45.080;7.634;2024-03-22T09:07:25;34.58;;;26.25;;
9942;SDS011;5010;45.080;7.634;2024-03-22T09:09:52;41.97;;;32.30;;
9942;SDS011;5010;45.080;7.634;2024-03-22T09:12:20;44.30;;;31.30;;
9942;SDS011;5010;45.080;7.634;2024-03-22T09:14:48;52.13;;;32.35;;
9942;SDS011;5010;45.080;7.634;2024-03-22T09:17:16;43.47;;;30.30;;
9942;SDS011;5010;45.080;7.634;2024-03-22T09:19:45;40.35;;;29.77;;
9942;SDS011;5010;45.080;7.634;2024-03-22T09:22:13;41.67;;;29.38;;
9942;SDS011;5010;45.080;7.634;2024-03-22T09:24:41;41.30;;;28.92;;
9942;SDS011;5010;45.080;7.634;2024-03-22T09:27:08;52.58;;;33.70;;
9942;SDS011;5010;45.080;7.634;2024-03-22T09:29:36;42.08;;;30.90;;
9942;SDS011;5010;45.080;7.634;2024-03-22T09:32:04;57.10;;;34.17;;
9942;SDS011;5010;45.080;7.634;2024-03-22T09:34:32;49.17;;;34.78;;
9942;SDS011;5010;45.080;7.634;2024-03-22T09:37:00;60.58;;;39.60;;
9942;SDS011;5010;45.080;7.634;2024-03-22T09:39:28;58.63;;;39.42;;
9942;SDS011;5010;45.080;7.634;2024-03-22T09:41:57;60.53;;;40.72;;
9942;SDS011;5010;45.080;7.634;2024-03-22T09:44:25;55.42;;;38.72;;
9942;SDS011;5010;45.080;7.634;2024-03-22T09:46:53;55.72;;;35.90;;
9942;SDS011;5010;45.080;7.634;2024-03-22T09:49:23;56.80;;;39.45;;
9942;SDS011;5010;45.080;7.634;2024-03-22T09:51:50;52.30;;;35.70;;
9942;SDS011;5010;45.080;7.634;2024-03-22T09:54:21;56.58;;;38.90;;
9942;SDS011;5010;45.080;7.634;2024-03-22T09:56:49;55.55;;;36.45;;
9942;SDS011;5010;45.080;7.634;2024-03-22T09:59:18;63.50;;;40.08;;
9942;SDS011;5010;45.080;7.634;2024-03-22T10:01:45;54.08;;;35.03;;
9942;SDS011;5010;45.080;7.634;2024-03-22T10:04:13;57.95;;;34.15;;
9942;SDS011;5010;45.080;7.634;2024-03-22T10:06:40;55.45;;;35.58;;
9942;SDS011;5010;45.080;7.634;2024-03-22T10:09:09;53.92;;;30.90;;
9942;SDS011;5010;45.080;7.634;2024-03-22T10:11:38;58.30;;;33.35;;
9942;SDS011;5010;45.080;7.634;2024-03-22T10:14:06;56.60;;;37.50;;
9942;SDS011;5010;45.080;7.634;2024-03-22T10:16:34;62.00;;;33.13;;
9942;SDS011;5010;45.080;7.634;2024-03-22T10:19:02;49.95;;;31.50;;
9942;SDS011;5010;45.080;7.634;2024-03-22T10:21:29;55.45;;;32.03;;
9942;SDS011;5010;45.080;7.634;2024-03-22T10:23:57;54.65;;;35.25;;
9942;SDS011;5010;45.080;7.634;2024-03-22T10:26:24;49.58;;;33.92;;
9942;SDS011;5010;45.080;7.634;2024-03-22T10:28:53;54.13;;;35.83;;
9942;SDS011;5010;45.080;7.634;2024-03-22T10:31:20;64.03;;;37.47;;
9942;SDS011;5010;45.080;7.634;2024-03-22T10:33:49;54.25;;;34.80;;
9942;SDS011;5010;45.080;7.634;2024-03-22T10:36:18;59.28;;;34.72;;
9942;SDS011;5010;45.080;7.634;2024-03-22T10:38:46;51.65;;;37.42;;
9942;SDS011;5010;45.080;7.634;2024-03-22T10:41:16;56.97;;;38.05;;
9942;SDS011;5010;45.080;7.634;2024-03-22T10:43:44;57.97;;;36.78;;
9942;SDS011;5010;45.080;7.634;2024-03-22T10:46:13;49.65;;;36.40;;
9942;SDS011;5010;45.080;7.634;2024-03-22T10:48:42;58.42;;;37.80;;
9942;SDS011;5010;45.080;7.634;2024-03-22T10:51:10;52.70;;;37.42;;
9942;SDS011;5010;45.080;7.634;2024-03-22T10:53:39;63.03;;;44.22;;
9942;SDS011;5010;45.080;7.634;2024-03-22T10:56:08;55.95;;;38.92;;
9942;SDS011;5010;45.080;7.634;2024-03-22T10:58:39;55.33;;;41.22;;
9942;SDS011;5010;45.080;7.634;2024-03-22T11:01:06;53.40;;;37.83;;
9942;SDS011;5010;45.080;7.634;2024-03-22T11:03:50;57.78;;;37.08;;
9942;SDS011;5010;45.080;7.634;2024-03-22T11:06:18;57.88;;;39.10;;
9942;SDS011;5010;45.080;7.634;2024-03-22T11:08:49;57.67;;;35.50;;
9942;SDS011;5010;45.080;7.634;2024-03-22T11:11:17;54.60;;;37.97;;
9942;SDS011;5010;45.080;7.634;2024-03-22T11:13:47;55.05;;;42.65;;
9942;SDS011;5010;45.080;7.634;2024-03-22T11:16:14;50.08;;;36.55;;
9942;SDS011;5010;45.080;7.634;2024-03-22T11:18:44;57.10;;;36.22;;
9942;SDS011;5010;45.080;7.634;2024-03-22T11:21:10;59.38;;;38.28;;
9942;SDS011;5010;45.080;7.634;2024-03-22T11:23:39;54.08;;;36.08;;
9942;SDS011;5010;45.080;7.634;2024-03-22T11:26:05;48.65;;;33.55;;
9942;SDS011;5010;45.080;7.634;2024-03-22T11:28:35;50.30;;;35.47;;
9942;SDS011;5010;45.080;7.634;2024-03-22T11:31:02;63.95;;;41.65;;
9942;SDS011;5010;45.080;7.634;2024-03-22T11:33:30;58.17;;;38.17;;
9942;SDS011;5010;45.080;7.634;2024-03-22T11:35:59;53.00;;;38.63;;
9942;SDS011;5010;45.080;7.634;2024-03-22T11:38:30;54.58;;;39.53;;
9942;SDS011;5010;45.080;7.634;2024-03-22T11:40:57;54.55;;;34.58;;
9942;SDS011;5010;45.080;7.634;2024-03-22T11:43:28;63.53;;;36.20;;
9942;SDS011;5010;45.080;7.634;2024-03-22T11:45:56;57.42;;;35.83;;
9942;SDS011;5010;45.080;7.634;2024-03-22T11:48:25;56.88;;;39.88;;
9942;SDS011;5010;45.080;7.634;2024-03-22T11:50:52;50.83;;;35.70;;
9942;SDS011;5010;45.080;7.634;2024-03-22T11:53:22;49.42;;;35.03;;
9942;SDS011;5010;45.080;7.634;2024-03-22T11:55:49;54.70;;;33.65;;
9942;SDS011;5010;45.080;7.634;2024-03-22T11:58:18;51.67;;;34.78;;
9942;SDS011;5010;45.080;7.634;2024-03-22T12:00:45;56.92;;;35.70;;
9942;SDS011;5010;45.080;7.634;2024-03-22T12:03:13;52.30;;;34.85;;
9942;SDS011;5010;45.080;7.634;2024-03-22T12:05:40;48.50;;;34.83;;
9942;SDS011;5010;45.080;7.634;2024-03-22T12:08:08;45.63;;;36.88;;
9942;SDS011;5010;45.080;7.634;2024-03-22T12:10:36;46.10;;;31.83;;
9942;SDS011;5010;45.080;7.634;2024-03-22T12:13:04;43.80;;;31.30;;
9942;SDS011;5010;45.080;7.634;2024-03-22T12:15:31;39.42;;;31.65;;
9942;SDS011;5010;45.080;7.634;2024-03-22T12:17:59;49.85;;;34.58;;
9942;SDS011;5010;45.080;7.634;2024-03-22T12:20:26;46.80;;;32.80;;
9942;SDS011;5010;45.080;7.634;2024-03-22T12:22:55;43.17;;;30.98;;
9942;SDS011;5010;45.080;7.634;2024-03-22T12:25:22;46.58;;;29.42;;
9942;SDS011;5010;45.080;7.634;2024-03-22T12:27:51;37.78;;;27.20;;
9942;SDS011;5010;45.080;7.634;2024-03-22T12:30:18;41.55;;;31.73;;
9942;SDS011;5010;45.080;7.634;2024-03-22T12:32:46;45.78;;;29.00;;
9942;SDS011;5010;45.080;7.634;2024-03-22T12:35:13;46.65;;;28.98;;
9942;SDS011;5010;45.080;7.634;2024-03-22T12:37:41;42.00;;;29.55;;
9942;SDS011;5010;45.080;7.634;2024-03-22T12:40:08;41.97;;;34.17;;
9942;SDS011;5010;45.080;7.634;2024-03-22T12:42:37;49.45;;;29.30;;
9942;SDS011;5010;45.080;7.634;2024-03-22T12:45:06;51.40;;;30.98;;
9942;SDS011;5010;45.080;7.634;2024-03-22T12:47:34;44.35;;;28.92;;
9942;SDS011;5010;45.080;7.634;2024-03-22T12:50:01;38.55;;;29.60;;
9942;SDS011;5010;45.080;7.634;2024-03-22T12:52:30;42.45;;;30.52;;
9942;SDS011;5010;45.080;7.634;2024-03-22T12:54:57;53.25;;;32.60;;
9942;SDS011;5010;45.080;7.634;2024-03-22T12:57:25;40.72;;;28.15;;
9942;SDS011;5010;45.080;7.634;2024-03-22T12:59:51;48.15;;;31.63;;
9942;SDS011;5010;45.080;7.634;2024-03-22T13:02:21;43.72;;;31.90;;
9942;SDS011;5010;45.080;7.634;2024-03-22T13:04:48;41.60;;;32.22;;
9942;SDS011;5010;45.080;7.634;2024-03-22T13:07:16;42.53;;;28.10;;
9942;SDS011;5010;45.080;7.634;2024-03-22T13:09:43;45.67;;;32.08;;
9942;SDS011;5010;45.080;7.634;2024-03-22T13:12:11;43.08;;;31.08;;
9942;SDS011;5010;45.080;7.634;2024-03-22T13:14:37;48.67;;;34.47;;
9942;SDS011;5010;45.080;7.634;2024-03-22T13:17:05;44.85;;;31.65;;
9942;SDS011;5010;45.080;7.634;2024-03-22T13:19:35;44.67;;;33.95;;
9942;SDS011;5010;45.080;7.634;2024-03-22T13:22:03;44.13;;;31.73;;
9942;SDS011;5010;45.080;7.634;2024-03-22T13:24:30;42.85;;;29.33;;
9942;SDS011;5010;45.080;7.634;2024-03-22T13:26:58;40.88;;;33.75;;
9942;SDS011;5010;45.080;7.634;2024-03-22T13:29:25;55.15;;;33.72;;
9942;SDS011;5010;45.080;7.634;2024-03-22T13:31:53;39.95;;;29.27;;
9942;SDS011;5010;45.080;7.634;2024-03-22T13:34:19;40.95;;;32.80;;
9942;SDS011;5010;45.080;7.634;2024-03-22T13:36:49;44.97;;;30.67;;
9942;SDS011;5010;45.080;7.634;2024-03-22T13:39:16;43.58;;;31.08;;
9942;SDS011;5010;45.080;7.634;2024-03-22T13:41:44;41.20;;;29.08;;
9942;SDS011;5010;45.080;7.634;2024-03-22T13:44:12;45.53;;;32.65;;
9942;SDS011;5010;45.080;7.634;2024-03-22T13:46:40;43.42;;;31.10;;
9942;SDS011;5010;45.080;7.634;2024-03-22T13:49:12;49.83;;;30.70;;
9942;SDS011;5010;45.080;7.634;2024-03-22T13:51:42;40.80;;;29.65;;
9942;SDS011;5010;45.080;7.634;2024-03-22T13:54:11;44.25;;;31.80;;
9942;SDS011;5010;45.080;7.634;2024-03-22T13:56:39;43.75;;;33.60;;
9942;SDS011;5010;45.080;7.634;2024-03-22T13:59:06;40.70;;;29.45;;
9942;SDS011;5010;45.080;7.634;2024-03-22T14:01:34;40.33;;;30.08;;
9942;SDS011;5010;45.080;7.634;2024-03-22T14:04:02;44.45;;;28.63;;
9942;SDS011;5010;45.080;7.634;2024-03-22T14:06:30;42.80;;;32.22;;
9942;SDS011;5010;45.080;7.634;2024-03-22T14:08:58;39.85;;;29.60;;
9942;SDS011;5010;45.080;7.634;2024-03-22T14:11:29;44.85;;;32.92;;
9942;SDS011;5010;45.080;7.634;2024-03-22T14:13:56;40.03;;;28.77;;
9942;SDS011;5010;45.080;7.634;2024-03-22T14:16:25;43.08;;;30.50;;
9942;SDS011;5010;45.080;7.634;2024-03-22T14:18:52;42.40;;;31.35;;
9942;SDS011;5010;45.080;7.634;2024-03-22T14:21:20;41.92;;;29.48;;
9942;SDS011;5010;45.080;7.634;2024-03-22T14:23:48;47.08;;;30.73;;
9942;SDS011;5010;45.080;7.634;2024-03-22T14:26:16;40.22;;;32.05;;
9942;SDS011;5010;45.080;7.634;2024-03-22T14:28:45;49.75;;;31.80;;
9942;SDS011;5010;45.080;7.634;2024-03-22T14:31:15;42.28;;;32.75;;
9942;SDS011;5010;45.080;7.634;2024-03-22T14:33:42;40.65;;;28.15;;
9942;SDS011;5010;45.080;7.634;2024-03-22T14:36:10;42.03;;;32.88;;
9942;SDS011;5010;45.080;7.634;2024-03-22T14:38:38;55.28;;;32.53;;
9942;SDS011;5010;45.080;7.634;2024-03-22T14:41:07;45.88;;;32.20;;
9942;SDS011;5010;45.080;7.634;2024-03-22T14:43:34;44.20;;;26.13;;
9942;SDS011;5010;45.080;7.634;2024-03-22T14:46:03;38.42;;;28.73;;
9942;SDS011;5010;45.080;7.634;2024-03-22T14:48:30;37.88;;;28.13;;
9942;SDS011;5010;45.080;7.634;2024-03-22T14:50:58;41.60;;;28.15;;
9942;SDS011;5010;45.080;7.634;2024-03-22T14:53:24;36.08;;;27.70;;
9942;SDS011;5010;45.080;7.634;2024-03-22T14:55:53;39.03;;;27.88;;
9942;SDS011;5010;45.080;7.634;2024-03-22T14:58:23;37.17;;;28.67;;